Terminal Aerodrome Forecast
Issued by NWS

Home | Current Version | Previous Version | Graphics & Text | Print | Product List | Glossary On
Versions: 1 2 3 4 5 6 7 8 9 10 11 12 13 14 15 16
000
FTUS43 KBIS 240139 AAA
TAFDIK
TAF AMD
KDIK 240139Z 2402/2424 01008KT 4SM -SHRA BR SCT011 OVC060
      TEMPO 2402/2406 6SM -SHRA BKN015
     FM240600 01008KT 6SM -SHRA BR BKN006 OVC010
     FM241300 35010KT P6SM VCSH OVC005
     FM241700 36011KT P6SM OVC008
     FM242000 36011KT P6SM OVC015=

USA.gov is the U.S. government's official web portal to all federal, state and local government web resources and services.